createdAt,value
2023-03-03T00:01:18.962Z,3.40
2023-03-03T00:03:27.657Z,2.80
2023-03-03T00:05:33.706Z,5.60
2023-03-03T00:07:39.540Z,3.65
2023-03-03T00:09:43.618Z,5.50
2023-03-03T00:11:51.605Z,5.13
2023-03-03T00:13:57.728Z,5.80
2023-03-03T00:16:19.092Z,1.13
2023-03-03T00:18:28.282Z,1.85
2023-03-03T00:20:37.771Z,1.60
2023-03-03T00:22:42.874Z,1.45
2023-03-03T00:24:47.680Z,3.40
2023-03-03T00:26:56.136Z,2.50
2023-03-03T00:29:00.008Z,2.10
2023-03-03T00:31:14.984Z,2.92
2023-03-03T00:33:29.522Z,0.90
2023-03-03T00:35:36.656Z,1.10
2023-03-03T00:37:42.691Z,2.00
2023-03-03T00:39:46.553Z,1.55
2023-03-03T00:41:50.764Z,4.43
2023-03-03T00:43:56.595Z,2.13
2023-03-03T00:46:01.091Z,1.95
2023-03-03T00:48:20.974Z,1.00
2023-03-03T00:50:44.997Z,1.33
2023-03-03T00:53:00.269Z,1.33
2023-03-03T00:55:04.382Z,2.85
2023-03-03T00:57:09.222Z,2.42
2023-03-03T00:59:14.468Z,1.58
2023-03-03T01:01:19.714Z,1.65
2023-03-03T01:03:28.824Z,1.23
2023-03-03T01:05:34.423Z,3.92
2023-03-03T01:07:40.916Z,5.00
2023-03-03T01:09:45.858Z,2.53
2023-03-03T01:11:50.174Z,1.75
2023-03-03T01:13:54.908Z,4.13
2023-03-03T01:15:59.938Z,4.18
2023-03-03T01:20:12.358Z,2.95
2023-03-03T01:22:17.450Z,3.58
2023-03-03T01:24:22.727Z,5.07
2023-03-03T01:26:26.821Z,1.88
2023-03-03T01:28:30.800Z,2.75
2023-03-03T01:30:35.660Z,3.70
2023-03-03T01:32:41.258Z,1.90
2023-03-03T01:34:46.333Z,3.47
2023-03-03T01:36:50.773Z,2.38
2023-03-03T01:38:56.091Z,4.68
2023-03-03T01:41:03.032Z,1.73
2023-03-03T01:43:08.033Z,4.18
2023-03-03T01:45:17.609Z,2.05
2023-03-03T01:47:24.290Z,1.83
2023-03-03T01:49:31.587Z,2.33
2023-03-03T01:51:40.284Z,2.60
2023-03-03T01:53:48.146Z,2.42
2023-03-03T01:55:55.330Z,3.85
2023-03-03T01:58:07.503Z,2.92
2023-03-03T02:00:14.657Z,2.65
2023-03-03T02:02:20.291Z,2.38
2023-03-03T02:04:26.882Z,3.15
2023-03-03T02:06:35.568Z,3.03
2023-03-03T02:08:47.233Z,2.28
2023-03-03T02:10:53.092Z,1.63
2023-03-03T02:12:58.319Z,1.52
2023-03-03T02:17:08.440Z,3.35
2023-03-03T02:19:21.918Z,2.15
2023-03-03T02:21:27.972Z,1.42
2023-03-03T02:23:36.535Z,2.13
2023-03-03T02:25:49.798Z,2.25
2023-03-03T02:27:56.770Z,3.10
2023-03-03T02:30:10.585Z,1.63
2023-03-03T02:32:14.425Z,2.67
2023-03-03T02:34:19.314Z,2.83
2023-03-03T02:36:24.691Z,2.40
2023-03-03T02:38:32.212Z,0.85
2023-03-03T02:40:42.058Z,1.33
2023-03-03T02:42:48.452Z,2.05
2023-03-03T02:44:54.113Z,1.63
2023-03-03T02:46:59.143Z,2.00
2023-03-03T02:49:04.758Z,1.05
2023-03-03T02:51:08.390Z,1.40
2023-03-03T02:53:12.257Z,2.53
2023-03-03T02:55:16.584Z,3.35
2023-03-03T02:57:21.366Z,9.60
2023-03-03T02:59:25.694Z,1.83
2023-03-03T03:01:32.314Z,3.15
2023-03-03T03:03:36.304Z,2.70
2023-03-03T03:05:43.088Z,3.35
2023-03-03T03:07:47.323Z,2.67
2023-03-03T03:09:51.411Z,3.92
2023-03-03T03:11:55.032Z,1.10
2023-03-03T03:14:02.195Z,5.93
2023-03-03T03:16:07.313Z,1.60
2023-03-03T03:18:12.687Z,3.42
2023-03-03T03:20:18.410Z,0.80
2023-03-03T03:22:22.428Z,1.40
2023-03-03T03:24:26.755Z,1.88
2023-03-03T03:26:35.236Z,2.10
2023-03-03T03:28:39.993Z,3.05
2023-03-03T03:30:45.990Z,2.70
2023-03-03T03:32:50.202Z,1.92
2023-03-03T03:34:55.767Z,2.80
2023-03-03T03:36:59.729Z,1.85
2023-03-03T03:39:06.631Z,2.33
2023-03-03T03:41:14.066Z,6.70
2023-03-03T03:43:18.189Z,2.58
2023-03-03T03:45:21.853Z,3.30
2023-03-03T03:47:25.662Z,3.17
2023-03-03T03:49:29.564Z,6.10
2023-03-03T03:51:38.444Z,2.53
2023-03-03T03:53:42.685Z,3.55
2023-03-03T03:55:46.904Z,3.47
2023-03-03T03:57:51.390Z,2.05
2023-03-03T03:59:55.293Z,2.33
2023-03-03T04:01:59.099Z,2.60
2023-03-03T04:04:04.490Z,4.03
2023-03-03T04:06:08.559Z,2.83
2023-03-03T04:08:14.248Z,2.17
2023-03-03T04:10:19.670Z,3.50
2023-03-03T04:18:35.837Z,2.50
2023-03-03T04:20:41.878Z,3.15
2023-03-03T04:22:46.734Z,3.20
2023-03-03T04:24:53.212Z,2.63
2023-03-03T04:26:57.105Z,3.53
2023-03-03T04:29:01.954Z,3.88
2023-03-03T04:31:07.526Z,1.50
2023-03-03T04:33:12.268Z,1.95
2023-03-03T04:35:17.759Z,7.22
2023-03-03T04:37:21.770Z,2.58
2023-03-03T04:39:25.753Z,4.07
2023-03-03T04:41:31.588Z,4.35
2023-03-03T04:43:35.955Z,3.25
2023-03-03T04:45:40.920Z,4.13
2023-03-03T04:47:45.815Z,1.88
2023-03-03T04:49:50.698Z,4.60
2023-03-03T04:51:54.559Z,2.35
2023-03-03T04:53:58.279Z,4.28
2023-03-03T04:56:02.275Z,4.45
2023-03-03T04:58:07.749Z,3.15
2023-03-03T05:00:13.783Z,3.47
2023-03-03T05:02:17.654Z,4.47
2023-03-03T05:04:21.513Z,4.65
2023-03-03T05:06:25.227Z,2.40
2023-03-03T05:08:28.932Z,3.28
2023-03-03T05:10:35.020Z,3.83
2023-03-03T05:12:38.742Z,2.38
2023-03-03T05:14:44.059Z,3.95
2023-03-03T05:18:50.934Z,2.40
2023-03-03T05:20:55.223Z,3.92
2023-03-03T05:23:01.706Z,2.40
2023-03-03T05:25:05.971Z,5.13
2023-03-03T05:27:09.270Z,1.63
2023-03-03T05:29:12.603Z,3.90
2023-03-03T05:31:17.276Z,3.03
2023-03-03T05:33:20.621Z,3.85
2023-03-03T05:35:23.875Z,2.53
2023-03-03T05:37:27.241Z,2.17
2023-03-03T05:39:30.586Z,2.30
2023-03-03T05:41:36.931Z,4.13
2023-03-03T05:43:40.760Z,2.55
2023-03-03T05:45:44.284Z,3.78
2023-03-03T05:47:49.518Z,2.25
2023-03-03T05:51:55.748Z,2.90
2023-03-03T05:53:59.036Z,1.80
2023-03-03T05:56:02.286Z,1.55
2023-03-03T05:58:05.677Z,4.53
2023-03-03T06:00:10.223Z,3.30
2023-03-03T06:02:16.713Z,5.03
2023-03-03T06:04:21.462Z,3.33
2023-03-03T06:06:24.684Z,5.50
2023-03-03T06:08:27.975Z,5.05
2023-03-03T06:10:31.303Z,3.13
2023-03-03T06:12:39.224Z,8.85
2023-03-03T06:14:42.508Z,7.43
2023-03-03T06:16:45.821Z,2.78
2023-03-03T06:18:49.160Z,3.53
2023-03-03T06:20:54.980Z,4.65
2023-03-03T06:22:58.391Z,6.55
2023-03-03T06:25:01.777Z,6.70
2023-03-03T06:27:05.190Z,5.00
2023-03-03T06:29:08.522Z,6.22
2023-03-03T06:31:12.021Z,6.55
2023-03-03T06:33:15.364Z,5.88
2023-03-03T06:35:18.822Z,8.07
2023-03-03T06:37:23.736Z,4.85
2023-03-03T06:39:27.170Z,6.20
2023-03-03T06:41:30.977Z,5.93
2023-03-03T06:43:34.422Z,3.50
2023-03-03T06:45:37.966Z,2.80
2023-03-03T06:47:41.415Z,3.80
2023-03-03T06:49:44.697Z,3.95
2023-03-03T06:51:48.001Z,5.38
2023-03-03T06:53:55.591Z,5.60
2023-03-03T06:56:00.001Z,6.97
2023-03-03T06:58:03.368Z,3.67
2023-03-03T07:00:17.343Z,4.50
2023-03-03T07:02:22.572Z,7.20
2023-03-03T07:06:34.854Z,6.90
2023-03-03T07:08:41.250Z,6.68
2023-03-03T07:10:46.952Z,5.93
2023-03-03T07:12:50.752Z,10.15
2023-03-03T07:14:59.499Z,6.15
2023-03-03T07:17:07.395Z,6.32
2023-03-03T07:19:20.747Z,6.65
2023-03-03T07:21:27.218Z,5.47
2023-03-03T07:23:42.717Z,6.15
2023-03-03T07:25:48.704Z,7.75
2023-03-03T07:27:53.849Z,8.40
2023-03-03T07:30:19.586Z,5.63
2023-03-03T07:32:37.230Z,6.05
2023-03-03T07:34:45.502Z,4.78
2023-03-03T07:36:52.212Z,4.80
2023-03-03T07:38:58.895Z,5.13
2023-03-03T07:41:06.947Z,10.00
2023-03-03T07:43:36.554Z,5.55
2023-03-03T07:45:40.386Z,4.07
2023-03-03T07:47:44.422Z,4.25
2023-03-03T07:49:49.071Z,3.53
2023-03-03T07:51:57.568Z,4.03
2023-03-03T07:54:19.087Z,5.40
2023-03-03T07:56:37.466Z,5.88
2023-03-03T07:58:42.345Z,4.75
2023-03-03T08:01:27.899Z,6.65
2023-03-03T08:03:32.768Z,16.40
2023-03-03T08:05:38.045Z,9.13
2023-03-03T08:07:42.012Z,4.40
2023-03-03T08:09:49.661Z,6.45
2023-03-03T08:11:59.841Z,7.45
2023-03-03T08:14:03.521Z,16.15
2023-03-03T08:16:32.237Z,21.92
2023-03-03T08:18:38.152Z,12.10
2023-03-03T08:20:49.769Z,9.88
2023-03-03T08:22:53.842Z,3.63
2023-03-03T08:24:57.931Z,19.75
2023-03-03T08:27:03.574Z,7.05
2023-03-03T08:29:07.780Z,6.53
2023-03-03T08:31:20.192Z,7.38
2023-03-03T08:33:30.132Z,5.00
2023-03-03T08:35:34.614Z,9.10
2023-03-03T08:37:39.320Z,4.95
2023-03-03T08:39:43.409Z,11.20
2023-03-03T08:41:47.650Z,4.72
2023-03-03T08:43:52.757Z,6.45
2023-03-03T08:48:06.055Z,4.95
2023-03-03T08:50:11.433Z,8.52
2023-03-03T08:52:15.492Z,9.98
2023-03-03T08:54:19.899Z,6.00
2023-03-03T08:56:24.221Z,8.35
2023-03-03T08:58:34.989Z,6.93
2023-03-03T09:00:42.457Z,8.40
2023-03-03T09:02:46.991Z,4.75
2023-03-03T09:04:50.968Z,7.13
2023-03-03T09:06:55.163Z,10.63
2023-03-03T09:08:59.190Z,10.48
2023-03-03T09:11:03.822Z,16.88
2023-03-03T09:13:15.372Z,16.25
2023-03-03T09:17:31.911Z,14.48
2023-03-03T09:19:38.779Z,7.80
2023-03-03T09:21:43.796Z,11.40
2023-03-03T09:23:55.431Z,8.57
2023-03-03T09:26:00.603Z,7.55
2023-03-03T09:28:04.546Z,7.55
2023-03-03T09:30:28.918Z,10.63
2023-03-03T09:32:38.055Z,7.32
2023-03-03T09:34:44.228Z,8.00
2023-03-03T09:36:49.766Z,9.75
2023-03-03T09:38:54.854Z,9.00
2023-03-03T09:43:43.836Z,10.13
2023-03-03T09:45:59.946Z,6.75
2023-03-03T09:48:41.884Z,11.23
2023-03-03T09:50:56.186Z,50.47
2023-03-03T09:53:15.536Z,10.77
2023-03-03T09:55:39.331Z,33.13
2023-03-03T10:00:37.245Z,14.70
2023-03-03T10:02:56.741Z,12.13
2023-03-03T10:05:37.151Z,12.77
2023-03-03T10:07:51.684Z,20.25
2023-03-03T10:10:14.759Z,18.02
2023-03-03T10:12:24.419Z,18.65
2023-03-03T10:14:47.270Z,8.10
2023-03-03T10:17:15.412Z,9.48
2023-03-03T10:19:34.589Z,10.25
2023-03-03T10:21:46.472Z,8.88
2023-03-03T10:24:01.975Z,10.75
2023-03-03T10:26:16.909Z,11.10
2023-03-03T10:28:34.037Z,10.73
2023-03-03T10:31:04.109Z,15.45
2023-03-03T10:33:20.326Z,24.20
2023-03-03T10:35:40.914Z,19.83
2023-03-03T10:37:53.308Z,9.18
2023-03-03T10:40:19.360Z,14.15
2023-03-03T10:42:42.922Z,12.30
2023-03-03T10:45:09.698Z,12.32
2023-03-03T10:47:46.171Z,15.13
2023-03-03T10:50:00.053Z,15.60
2023-03-03T10:52:20.306Z,15.10
2023-03-03T10:54:48.368Z,7.35
2023-03-03T10:57:03.117Z,13.23
2023-03-03T10:59:28.418Z,13.85
2023-03-03T11:01:47.268Z,12.50
2023-03-03T11:04:13.330Z,13.60
2023-03-03T11:06:21.952Z,16.48
2023-03-03T11:08:30.328Z,10.48
2023-03-03T11:10:48.192Z,11.55
2023-03-03T11:13:04.146Z,12.02
2023-03-03T11:15:24.260Z,10.52
2023-03-03T11:17:38.784Z,4.00
2023-03-03T11:19:57.683Z,3.00
2023-03-03T11:22:15.496Z,5.63
2023-03-03T11:24:33.128Z,7.93
2023-03-03T11:29:12.992Z,7.25
2023-03-03T11:31:27.584Z,6.28
2023-03-03T11:33:40.074Z,8.60
2023-03-03T11:35:51.051Z,10.88
2023-03-03T11:38:06.720Z,8.07
2023-03-03T11:40:18.346Z,10.32
2023-03-03T11:42:30.116Z,15.57
2023-03-03T11:44:39.966Z,12.43
2023-03-03T11:46:48.925Z,11.82
2023-03-03T11:48:59.654Z,13.93
2023-03-03T11:51:07.546Z,11.77
2023-03-03T11:53:26.874Z,16.85
2023-03-03T11:55:34.862Z,9.48
2023-03-03T11:57:44.736Z,40.58
2023-03-03T12:00:25.069Z,37.53
2023-03-03T12:02:44.612Z,12.38
2023-03-03T12:04:51.758Z,10.27
2023-03-03T12:07:19.158Z,6.57
2023-03-03T12:09:41.529Z,6.20
2023-03-03T12:11:55.840Z,7.72
2023-03-03T12:14:04.472Z,7.07
2023-03-03T12:16:17.326Z,8.43
2023-03-03T12:18:51.612Z,7.05
2023-03-03T12:21:11.461Z,16.20
2023-03-03T12:23:35.598Z,9.38
2023-03-03T12:25:43.095Z,8.40
2023-03-03T12:27:54.174Z,8.23
2023-03-03T12:30:07.850Z,8.93
2023-03-03T12:32:22.085Z,8.45
2023-03-03T12:34:33.199Z,12.10
2023-03-03T12:37:00.985Z,10.52
2023-03-03T12:39:11.948Z,10.27
2023-03-03T12:41:23.990Z,10.75
2023-03-03T12:43:43.851Z,11.70
2023-03-03T12:45:57.429Z,13.23
2023-03-03T12:48:10.060Z,9.48
2023-03-03T12:50:26.880Z,12.13
2023-03-03T12:52:40.891Z,18.30
2023-03-03T12:54:58.109Z,12.50
2023-03-03T12:57:13.984Z,9.77
2023-03-03T12:59:26.560Z,20.38
2023-03-03T13:01:44.744Z,11.48
2023-03-03T13:04:02.300Z,14.50
2023-03-03T13:08:43.144Z,14.05
2023-03-03T13:10:51.598Z,14.48
2023-03-03T13:13:01.866Z,18.52
2023-03-03T13:15:18.011Z,17.83
2023-03-03T13:17:28.564Z,16.50
2023-03-03T13:19:39.784Z,15.15
2023-03-03T13:21:50.415Z,15.15
2023-03-03T13:24:01.938Z,14.40
2023-03-03T13:26:13.122Z,15.60
2023-03-03T13:28:26.916Z,21.77
2023-03-03T13:30:35.027Z,17.60
2023-03-03T13:32:47.013Z,44.05
2023-03-03T13:34:57.544Z,31.83
2023-03-03T13:37:06.788Z,27.10
2023-03-03T13:39:20.672Z,25.67
2023-03-03T13:41:30.615Z,19.58
2023-03-03T13:43:41.675Z,16.13
2023-03-03T13:45:57.864Z,13.38
2023-03-03T13:48:08.226Z,9.40
2023-03-03T13:50:25.315Z,11.82
2023-03-03T13:52:30.587Z,8.10
2023-03-03T13:54:56.183Z,9.68
2023-03-03T13:57:14.968Z,8.45
2023-03-03T13:59:31.217Z,6.65
2023-03-03T14:01:49.325Z,6.65
2023-03-03T14:04:06.450Z,6.88
2023-03-03T14:06:16.564Z,6.30
2023-03-03T14:08:42.442Z,9.52
2023-03-03T14:11:03.852Z,8.65
2023-03-03T14:13:10.892Z,8.65
2023-03-03T14:15:23.598Z,5.40
2023-03-03T14:17:35.164Z,6.15
2023-03-03T14:19:44.682Z,7.07
2023-03-03T14:22:03.438Z,5.40
2023-03-03T14:24:11.504Z,7.07
2023-03-03T14:26:15.792Z,8.35
2023-03-03T14:28:21.789Z,11.27
2023-03-03T14:30:35.362Z,8.98
2023-03-03T14:32:45.425Z,12.45
2023-03-03T14:34:59.661Z,9.68
2023-03-03T14:37:23.442Z,6.10
2023-03-03T14:39:34.295Z,5.93
2023-03-03T14:41:41.546Z,3.53
2023-03-03T14:43:47.033Z,6.30
2023-03-03T14:45:50.958Z,4.38
2023-03-03T14:47:55.046Z,2.83
2023-03-03T14:50:00.584Z,3.75
2023-03-03T14:52:21.169Z,3.17
2023-03-03T14:54:28.431Z,2.38
2023-03-03T14:56:35.862Z,2.03
2023-03-03T14:58:42.660Z,2.78
2023-03-03T15:00:46.321Z,2.10
2023-03-03T15:03:04.985Z,4.22
2023-03-03T15:05:24.124Z,2.85
2023-03-03T15:07:36.249Z,2.97
2023-03-03T15:09:43.519Z,4.80
2023-03-03T15:11:47.756Z,5.75
2023-03-03T15:13:51.363Z,5.13
2023-03-03T15:16:04.386Z,2.47
2023-03-03T15:18:13.944Z,1.52
2023-03-03T15:20:33.071Z,1.73
2023-03-03T15:22:48.122Z,1.02
2023-03-03T15:24:59.631Z,1.40
2023-03-03T15:27:08.111Z,1.42
2023-03-03T15:29:22.794Z,1.95
2023-03-03T15:31:38.198Z,1.27
2023-03-03T15:33:48.841Z,2.15
2023-03-03T15:35:56.241Z,2.15
2023-03-03T15:38:12.452Z,3.60
2023-03-03T15:40:27.540Z,6.20
2023-03-03T15:42:39.590Z,1.55
2023-03-03T15:44:57.769Z,1.80
2023-03-03T15:47:15.984Z,2.80
2023-03-03T15:49:46.316Z,3.38
2023-03-03T15:52:12.671Z,3.20
2023-03-03T15:54:31.162Z,2.63
2023-03-03T15:56:43.737Z,1.55
2023-03-03T15:59:05.754Z,3.38
2023-03-03T16:01:19.580Z,5.10
2023-03-03T16:03:29.997Z,3.47
2023-03-03T16:05:36.976Z,1.33
2023-03-03T16:07:50.489Z,1.48
2023-03-03T16:10:05.092Z,4.78
2023-03-03T16:12:19.249Z,0.80
2023-03-03T16:14:42.365Z,1.73
2023-03-03T16:16:50.953Z,3.45
2023-03-03T16:19:07.405Z,2.13
2023-03-03T16:21:25.092Z,2.17
2023-03-03T16:23:39.229Z,3.30
2023-03-03T16:25:57.306Z,3.90
2023-03-03T16:28:07.263Z,1.15
2023-03-03T16:30:28.080Z,3.38
2023-03-03T16:32:39.285Z,0.82
2023-03-03T16:34:48.952Z,1.77
2023-03-03T16:37:01.622Z,2.80
2023-03-03T16:39:10.396Z,3.83
2023-03-03T16:41:24.879Z,4.68
2023-03-03T16:43:38.318Z,1.17
2023-03-03T16:45:43.926Z,3.28
2023-03-03T16:48:01.133Z,2.72
2023-03-03T16:50:18.477Z,2.05
2023-03-03T16:52:31.396Z,2.00
2023-03-03T16:54:40.998Z,2.42
2023-03-03T16:56:54.948Z,2.63
2023-03-03T16:59:13.870Z,4.85
2023-03-03T17:01:27.050Z,3.50
2023-03-03T17:03:42.082Z,2.85
2023-03-03T17:05:52.392Z,5.80
2023-03-03T17:08:09.419Z,5.68
2023-03-03T17:10:24.860Z,2.40
2023-03-03T17:12:51.905Z,4.07
2023-03-03T17:15:13.098Z,7.68
2023-03-03T17:17:25.819Z,4.82
2023-03-03T17:19:57.557Z,3.53
2023-03-03T17:22:15.588Z,1.40
2023-03-03T17:24:31.870Z,1.65
2023-03-03T17:26:58.636Z,3.45
2023-03-03T17:29:24.948Z,3.72
2023-03-03T17:31:38.071Z,2.00
2023-03-03T17:34:00.745Z,4.93
2023-03-03T17:36:24.305Z,3.20
2023-03-03T17:38:42.456Z,2.45
2023-03-03T17:40:54.895Z,1.10
2023-03-03T17:43:05.026Z,3.22
2023-03-03T17:45:13.287Z,3.90
2023-03-03T17:47:29.497Z,2.90
2023-03-03T17:50:08.004Z,4.45
2023-03-03T17:52:54.401Z,2.88
2023-03-03T17:55:22.257Z,2.85
2023-03-03T17:57:41.197Z,4.75
2023-03-03T18:00:03.101Z,5.43
2023-03-03T18:02:56.234Z,5.13
2023-03-03T18:05:29.231Z,7.28
2023-03-03T18:07:46.359Z,3.05
2023-03-03T18:10:25.447Z,4.75
2023-03-03T18:12:43.256Z,3.15
2023-03-03T18:15:01.499Z,5.10
2023-03-03T18:17:35.166Z,4.75
2023-03-03T18:19:59.460Z,4.78
2023-03-03T18:22:09.142Z,4.40
2023-03-03T18:24:38.472Z,2.80
2023-03-03T18:26:43.378Z,3.10
2023-03-03T18:28:50.409Z,2.65
2023-03-03T18:30:58.526Z,5.30
2023-03-03T18:33:15.816Z,7.32
2023-03-03T18:35:29.877Z,7.28
2023-03-03T18:37:46.741Z,5.10
2023-03-03T18:39:51.716Z,6.00
2023-03-03T18:42:13.096Z,7.22
2023-03-03T18:44:29.750Z,7.07
2023-03-03T18:46:54.299Z,6.55
2023-03-03T18:49:03.456Z,12.40
2023-03-03T18:51:09.751Z,9.00
2023-03-03T18:53:26.105Z,10.90
2023-03-03T18:55:30.207Z,9.43
2023-03-03T18:57:34.226Z,8.05
2023-03-03T18:59:42.805Z,9.35
2023-03-03T19:01:51.966Z,9.30
2023-03-03T19:04:19.099Z,11.15
2023-03-03T19:06:33.111Z,9.93
2023-03-03T19:08:51.445Z,12.18
2023-03-03T19:11:01.073Z,20.42
2023-03-03T19:13:10.132Z,17.73
2023-03-03T19:15:44.969Z,11.10
2023-03-03T19:17:53.627Z,12.75
2023-03-03T19:20:07.299Z,10.13
2023-03-03T19:22:26.396Z,13.70
2023-03-03T19:24:35.228Z,9.63
2023-03-03T19:26:57.440Z,17.02
2023-03-03T19:29:13.427Z,23.00
2023-03-03T19:31:28.706Z,31.33
2023-03-03T19:33:56.992Z,11.00
2023-03-03T19:36:32.496Z,23.45
2023-03-03T19:38:45.283Z,7.88
2023-03-03T19:41:00.427Z,5.50
2023-03-03T19:43:15.896Z,7.35
2023-03-03T19:45:38.116Z,7.65
2023-03-03T19:47:48.631Z,7.47
2023-03-03T19:50:05.586Z,4.28
2023-03-03T19:52:20.215Z,9.48
2023-03-03T19:54:47.040Z,10.57
2023-03-03T19:56:54.040Z,11.55
2023-03-03T19:59:11.047Z,7.65
2023-03-03T20:01:24.764Z,6.38
2023-03-03T20:03:53.226Z,8.00
2023-03-03T20:06:10.574Z,8.48
2023-03-03T20:10:39.334Z,8.05
2023-03-03T20:13:00.571Z,11.80
2023-03-03T20:15:12.800Z,9.50
2023-03-03T20:18:00.537Z,8.90
2023-03-03T20:20:22.981Z,7.18
2023-03-03T20:22:39.521Z,6.18
2023-03-03T20:25:08.656Z,8.85
2023-03-03T20:27:19.116Z,5.68
2023-03-03T20:29:42.641Z,7.70
2023-03-03T20:31:58.384Z,7.53
2023-03-03T20:34:11.450Z,7.35
2023-03-03T20:36:27.143Z,7.75
2023-03-03T20:38:42.049Z,7.82
2023-03-03T20:40:57.310Z,9.23
2023-03-03T20:43:13.781Z,11.40
2023-03-03T20:45:34.332Z,21.30
2023-03-03T20:47:49.749Z,10.07
2023-03-03T20:50:15.806Z,13.05
2023-03-03T20:52:26.037Z,10.00
2023-03-03T20:54:43.414Z,13.32
2023-03-03T20:56:54.848Z,13.05
2023-03-03T20:59:11.446Z,11.55
2023-03-03T21:01:17.942Z,9.73
2023-03-03T21:03:29.791Z,12.07
2023-03-03T21:05:34.630Z,11.38
2023-03-03T21:07:41.211Z,9.73
2023-03-03T21:09:44.785Z,8.65
2023-03-03T21:11:49.874Z,10.23
2023-03-03T21:13:56.772Z,9.55
2023-03-03T21:16:04.536Z,10.70
2023-03-03T21:18:24.117Z,7.68
2023-03-03T21:20:31.408Z,11.95
2023-03-03T21:22:35.155Z,6.95
2023-03-03T21:24:52.969Z,8.60
2023-03-03T21:27:00.530Z,10.10
2023-03-03T21:29:04.523Z,8.38
2023-03-03T21:31:13.621Z,7.90
2023-03-03T21:33:45.221Z,8.27
2023-03-03T21:35:59.654Z,7.78
2023-03-03T21:38:03.537Z,8.15
2023-03-03T21:40:23.533Z,11.38
2023-03-03T21:42:44.502Z,7.85
2023-03-03T21:44:50.084Z,13.90
2023-03-03T21:46:54.112Z,9.40
2023-03-03T21:48:57.758Z,13.95
2023-03-03T21:51:02.873Z,7.90
2023-03-03T21:55:11.436Z,10.82
2023-03-03T21:57:15.631Z,8.20
2023-03-03T21:59:21.312Z,9.23
2023-03-03T22:01:25.292Z,8.27
2023-03-03T22:03:29.208Z,10.00
2023-03-03T22:05:33.200Z,12.50
2023-03-03T22:07:37.360Z,11.35
2023-03-03T22:09:43.906Z,12.68
2023-03-03T22:11:48.286Z,10.60
2023-03-03T22:13:51.950Z,11.63
2023-03-03T22:15:57.300Z,10.98
2023-03-03T22:18:01.593Z,9.20
2023-03-03T22:20:06.101Z,11.38
2023-03-03T22:22:10.015Z,14.07
2023-03-03T22:24:13.899Z,12.45
2023-03-03T22:26:17.535Z,10.82
2023-03-03T22:28:21.386Z,13.80
2023-03-03T22:30:25.570Z,13.70
2023-03-03T22:32:31.468Z,14.93
2023-03-03T22:34:35.025Z,12.13
2023-03-03T22:36:38.947Z,14.88
2023-03-03T22:38:42.937Z,12.25
2023-03-03T22:40:46.301Z,14.43
2023-03-03T22:42:52.585Z,12.65
2023-03-03T22:44:56.892Z,6.45
2023-03-03T22:47:00.689Z,7.85
2023-03-03T22:49:05.824Z,4.13
2023-03-03T22:51:09.882Z,5.68
2023-03-03T22:53:13.777Z,3.75
2023-03-03T22:55:17.277Z,6.13
2023-03-03T22:57:20.706Z,4.70
2023-03-03T22:59:24.033Z,3.10
2023-03-03T23:01:27.508Z,5.28
2023-03-03T23:03:32.492Z,3.13
2023-03-03T23:05:38.164Z,2.88
2023-03-03T23:07:42.032Z,1.90
2023-03-03T23:09:45.432Z,2.33
2023-03-03T23:11:48.904Z,5.55
2023-03-03T23:13:52.369Z,2.63
2023-03-03T23:16:00.366Z,2.25
2023-03-03T23:18:04.648Z,7.07
2023-03-03T23:20:09.404Z,8.55
2023-03-03T23:22:14.269Z,8.55
2023-03-03T23:24:17.634Z,5.85
2023-03-03T23:26:21.016Z,4.22
2023-03-03T23:28:24.325Z,4.97
2023-03-03T23:30:27.693Z,5.05
2023-03-03T23:32:31.112Z,3.67
2023-03-03T23:34:34.616Z,3.67
2023-03-03T23:36:38.032Z,2.33
2023-03-03T23:38:43.260Z,3.00
2023-03-03T23:40:47.829Z,2.25
2023-03-03T23:42:51.622Z,2.35
2023-03-03T23:44:55.549Z,3.00
2023-03-03T23:46:59.219Z,4.63
2023-03-03T23:49:02.510Z,4.20
2023-03-03T23:51:06.349Z,2.13
2023-03-03T23:53:09.908Z,3.75
2023-03-03T23:55:14.566Z,3.53
2023-03-03T23:57:17.815Z,2.42
2023-03-03T23:59:21.217Z,1.75
